createdAt,value
2023-04-16T00:00:41.068Z,87.88
2023-04-16T00:01:42.013Z,87.97
2023-04-16T00:02:38.916Z,87.95
2023-04-16T00:03:39.096Z,87.88
2023-04-16T00:04:38.694Z,87.87
2023-04-16T00:05:39.684Z,87.84
2023-04-16T00:06:38.531Z,87.83
2023-04-16T00:07:38.898Z,87.79
2023-04-16T00:08:38.995Z,87.79
2023-04-16T00:09:38.455Z,87.84
2023-04-16T00:10:39.066Z,87.89
2023-04-16T00:11:38.262Z,87.86
2023-04-16T00:12:38.514Z,87.94
2023-04-16T00:13:38.550Z,87.97
2023-04-16T00:14:38.814Z,87.98
2023-04-16T00:15:39.632Z,88.02
2023-04-16T00:17:10.481Z,88.02
2023-04-16T00:17:42.972Z,88.05
2023-04-16T00:18:38.155Z,88.09
2023-04-16T00:19:38.069Z,88.16
2023-04-16T00:20:38.962Z,88.27
2023-04-16T00:21:39.187Z,88.21
2023-04-16T00:22:38.314Z,88.20
2023-04-16T00:23:38.730Z,88.19
2023-04-16T00:24:38.560Z,88.23
2023-04-16T00:25:39.086Z,88.29
2023-04-16T00:26:38.576Z,88.29
2023-04-16T00:27:38.896Z,88.28
2023-04-16T00:28:39.224Z,88.32
2023-04-16T00:29:38.556Z,88.38
2023-04-16T00:30:39.344Z,88.46
2023-04-16T00:31:38.387Z,88.44
2023-04-16T00:32:38.767Z,88.42
2023-04-16T00:33:39.318Z,88.35
2023-04-16T00:34:38.551Z,88.42
2023-04-16T00:35:39.034Z,88.33
2023-04-16T00:36:38.078Z,88.26
2023-04-16T00:37:38.250Z,88.32
2023-04-16T00:38:38.377Z,88.32
2023-04-16T00:39:38.336Z,88.37
2023-04-16T00:40:38.260Z,88.41
2023-04-16T00:41:38.739Z,88.54
2023-04-16T00:42:38.636Z,88.60
2023-04-16T00:43:38.605Z,88.54
2023-04-16T00:44:38.696Z,88.65
2023-04-16T00:45:39.678Z,88.66
2023-04-16T00:47:38.859Z,88.68
2023-04-16T00:48:39.265Z,88.68
2023-04-16T00:49:38.696Z,88.74
2023-04-16T00:50:39.550Z,88.70
2023-04-16T00:51:38.452Z,88.66
2023-04-16T00:52:38.739Z,88.58
2023-04-16T00:53:38.731Z,88.49
2023-04-16T00:54:38.588Z,88.52
2023-04-16T00:55:39.195Z,88.57
2023-04-16T00:56:38.550Z,88.62
2023-04-16T00:57:38.781Z,88.64
2023-04-16T00:58:38.902Z,88.61
2023-04-16T00:59:39.252Z,88.65
2023-04-16T01:00:39.667Z,88.66
2023-04-16T01:01:38.338Z,88.66
2023-04-16T01:02:38.901Z,88.68
2023-04-16T01:03:38.649Z,88.66
2023-04-16T01:04:38.862Z,88.71
2023-04-16T01:05:39.361Z,88.74
2023-04-16T01:06:38.787Z,88.74
2023-04-16T01:07:38.347Z,88.86
2023-04-16T01:08:38.485Z,88.82
2023-04-16T01:09:38.696Z,88.84
2023-04-16T01:10:38.762Z,88.77
2023-04-16T01:11:38.638Z,88.83
2023-04-16T01:12:38.656Z,88.85
2023-04-16T01:13:38.893Z,88.83
2023-04-16T01:14:38.730Z,88.79
2023-04-16T01:15:40.012Z,88.76
2023-04-16T01:16:38.644Z,88.85
2023-04-16T01:17:39.106Z,89.00
2023-04-16T01:18:38.692Z,89.01
2023-04-16T01:19:38.992Z,88.96
2023-04-16T01:20:38.795Z,89.01
2023-04-16T01:21:38.619Z,89.10
2023-04-16T01:22:38.898Z,89.01
2023-04-16T01:23:38.716Z,89.07
2023-04-16T01:24:38.714Z,89.05
2023-04-16T01:25:38.433Z,88.95
2023-04-16T01:26:38.832Z,88.98
2023-04-16T01:27:38.572Z,88.99
2023-04-16T01:28:38.551Z,88.98
2023-04-16T01:29:38.590Z,89.00
2023-04-16T01:30:39.114Z,89.06
2023-04-16T01:31:43.748Z,89.10
2023-04-16T01:32:39.079Z,89.16
2023-04-16T01:33:38.805Z,89.12
2023-04-16T01:34:38.609Z,89.11
2023-04-16T01:35:38.607Z,89.08
2023-04-16T01:36:39.047Z,89.11
2023-04-16T01:37:38.702Z,89.13
2023-04-16T01:38:39.078Z,89.13
2023-04-16T01:39:38.179Z,89.21
2023-04-16T01:40:38.577Z,89.32
2023-04-16T01:41:38.465Z,89.31
2023-04-16T01:42:38.516Z,89.21
2023-04-16T01:43:40.289Z,89.25
2023-04-16T01:44:38.458Z,89.29
2023-04-16T01:45:39.639Z,89.28
2023-04-16T01:46:38.814Z,89.20
2023-04-16T01:47:38.950Z,89.25
2023-04-16T01:48:39.029Z,89.29
2023-04-16T01:49:38.765Z,89.26
2023-04-16T01:50:38.698Z,89.24
2023-04-16T01:51:38.605Z,89.18
2023-04-16T01:52:38.741Z,89.25
2023-04-16T01:53:38.785Z,89.30
2023-04-16T01:54:39.342Z,89.32
2023-04-16T01:55:39.361Z,89.29
2023-04-16T01:56:38.929Z,89.25
2023-04-16T01:57:38.796Z,89.30
2023-04-16T01:58:39.021Z,89.30
2023-04-16T01:59:38.557Z,89.34
2023-04-16T02:00:40.500Z,89.32
2023-04-16T02:01:39.039Z,89.30
2023-04-16T02:02:38.900Z,89.32
2023-04-16T02:03:38.899Z,89.31
2023-04-16T02:04:38.620Z,89.28
2023-04-16T02:05:39.378Z,89.32
2023-04-16T02:06:38.570Z,89.38
2023-04-16T02:07:38.592Z,89.38
2023-04-16T02:08:38.724Z,89.37
2023-04-16T02:09:38.149Z,89.45
2023-04-16T02:10:38.389Z,89.50
2023-04-16T02:11:38.392Z,89.40
2023-04-16T02:12:38.052Z,89.49
2023-04-16T02:13:38.168Z,89.55
2023-04-16T02:14:38.170Z,89.55
2023-04-16T02:15:38.622Z,89.58
2023-04-16T02:16:38.214Z,89.54
2023-04-16T02:17:38.309Z,89.43
2023-04-16T02:18:38.168Z,89.41
2023-04-16T02:19:45.932Z,89.45
2023-04-16T02:20:38.761Z,89.61
2023-04-16T02:22:09.556Z,89.61
2023-04-16T02:22:40.659Z,89.52
2023-04-16T02:23:38.128Z,89.55
2023-04-16T02:24:37.830Z,89.65
2023-04-16T02:25:38.432Z,89.68
2023-04-16T02:26:38.675Z,89.67
2023-04-16T02:27:38.224Z,89.76
2023-04-16T02:28:38.069Z,89.79
2023-04-16T02:29:37.811Z,89.71
2023-04-16T02:30:38.861Z,89.74
2023-04-16T02:31:38.478Z,89.76
2023-04-16T02:32:38.053Z,89.73
2023-04-16T02:33:38.317Z,89.75
2023-04-16T02:34:38.064Z,89.70
2023-04-16T02:35:37.988Z,89.80
2023-04-16T02:36:38.161Z,89.80
2023-04-16T02:37:38.248Z,89.72
2023-04-16T02:38:38.184Z,89.74
2023-04-16T02:39:38.221Z,89.82
2023-04-16T02:40:38.264Z,89.84
2023-04-16T02:41:37.726Z,89.75
2023-04-16T02:42:38.505Z,89.79
2023-04-16T02:43:38.239Z,89.86
2023-04-16T02:44:37.512Z,89.91
2023-04-16T02:45:38.396Z,89.82
2023-04-16T02:46:38.298Z,89.92
2023-04-16T02:47:37.814Z,89.93
2023-04-16T02:48:38.369Z,89.98
2023-04-16T02:49:38.065Z,89.96
2023-04-16T02:50:38.348Z,90.00
2023-04-16T02:51:38.305Z,89.99
2023-04-16T02:52:37.874Z,89.92
2023-04-16T02:53:38.581Z,89.97
2023-04-16T02:54:38.328Z,90.02
2023-04-16T02:55:38.049Z,89.97
2023-04-16T02:56:37.988Z,89.97
2023-04-16T02:57:37.957Z,90.01
2023-04-16T02:58:38.480Z,90.01
2023-04-16T02:59:38.174Z,89.95
2023-04-16T03:00:39.720Z,89.86
2023-04-16T03:01:39.280Z,89.82
2023-04-16T03:02:38.240Z,89.88
2023-04-16T03:03:38.256Z,90.00
2023-04-16T03:04:38.533Z,90.06
2023-04-16T03:05:40.314Z,90.17
2023-04-16T03:06:38.577Z,90.12
2023-04-16T03:07:38.164Z,90.19
2023-04-16T03:08:37.956Z,90.23
2023-04-16T03:09:38.865Z,90.16
2023-04-16T03:10:38.583Z,90.11
2023-04-16T03:11:38.537Z,90.13
2023-04-16T03:12:38.261Z,90.26
2023-04-16T03:13:37.987Z,90.23
2023-04-16T03:14:38.004Z,90.24
2023-04-16T03:15:38.597Z,90.30
2023-04-16T03:16:38.454Z,90.41
2023-04-16T03:17:38.433Z,90.38
2023-04-16T03:18:38.522Z,90.30
2023-04-16T03:19:38.407Z,90.26
2023-04-16T03:20:38.129Z,90.23
2023-04-16T03:21:38.388Z,90.25
2023-04-16T03:22:37.773Z,90.33
2023-04-16T03:23:38.373Z,90.28
2023-04-16T03:24:38.107Z,90.22
2023-04-16T03:25:38.595Z,90.23
2023-04-16T03:26:38.406Z,90.24
2023-04-16T03:27:38.374Z,90.22
2023-04-16T03:28:38.040Z,90.26
2023-04-16T03:29:37.990Z,90.28
2023-04-16T03:30:38.588Z,90.33
2023-04-16T03:31:38.710Z,90.28
2023-04-16T03:32:38.651Z,90.23
2023-04-16T03:33:38.329Z,90.36
2023-04-16T03:34:38.037Z,90.46
2023-04-16T03:35:38.516Z,90.45
2023-04-16T03:36:38.722Z,90.43
2023-04-16T03:37:38.613Z,90.41
2023-04-16T03:38:38.848Z,90.49
2023-04-16T03:39:39.099Z,90.54
2023-04-16T03:40:39.094Z,90.46
2023-04-16T03:41:38.520Z,90.42
2023-04-16T03:42:38.590Z,90.43
2023-04-16T03:43:38.787Z,90.45
2023-04-16T03:44:38.979Z,90.46
2023-04-16T03:45:39.067Z,90.43
2023-04-16T03:46:38.119Z,90.51
2023-04-16T03:47:38.114Z,90.52
2023-04-16T03:48:38.405Z,90.59
2023-04-16T03:49:38.328Z,90.61
2023-04-16T03:50:38.174Z,90.66
2023-04-16T03:51:38.210Z,90.68
2023-04-16T03:52:37.936Z,90.64
2023-04-16T03:53:38.518Z,90.65
2023-04-16T03:54:43.013Z,90.66
2023-04-16T03:55:37.950Z,90.67
2023-04-16T03:56:38.636Z,90.64
2023-04-16T03:57:38.465Z,90.62
2023-04-16T03:58:38.349Z,90.60
2023-04-16T03:59:38.111Z,90.65
2023-04-16T04:00:44.118Z,90.64
2023-04-16T04:01:38.050Z,90.59
2023-04-16T04:02:38.762Z,90.64
2023-04-16T04:03:39.624Z,90.69
2023-04-16T04:04:38.941Z,90.70
2023-04-16T04:05:38.518Z,90.70
2023-04-16T04:06:37.769Z,90.74
2023-04-16T04:07:38.450Z,90.72
2023-04-16T04:08:38.264Z,90.64
2023-04-16T04:09:37.754Z,90.69
2023-04-16T04:10:38.860Z,90.71
2023-04-16T04:11:38.329Z,90.67
2023-04-16T04:12:37.822Z,90.64
2023-04-16T04:13:38.557Z,90.60
2023-04-16T04:14:52.341Z,90.58
2023-04-16T04:15:38.315Z,90.63
2023-04-16T04:16:37.825Z,90.72
2023-04-16T04:17:38.292Z,90.72
2023-04-16T04:18:38.146Z,90.73
2023-04-16T04:19:40.264Z,90.73
2023-04-16T04:20:53.146Z,90.64
2023-04-16T04:21:37.888Z,90.66
2023-04-16T04:22:38.587Z,90.56
2023-04-16T04:23:37.991Z,90.61
2023-04-16T04:24:38.964Z,90.67
2023-04-16T04:25:38.571Z,90.70
2023-04-16T04:26:38.480Z,90.71
2023-04-16T04:27:38.124Z,90.71
2023-04-16T04:28:38.039Z,90.71
2023-04-16T04:29:38.489Z,90.77
2023-04-16T04:30:39.260Z,90.76
2023-04-16T04:31:38.534Z,90.75
2023-04-16T04:32:38.500Z,90.59
2023-04-16T04:33:38.147Z,90.62
2023-04-16T04:34:37.998Z,90.72
2023-04-16T04:35:37.811Z,90.67
2023-04-16T04:36:38.772Z,90.68
2023-04-16T04:37:38.311Z,90.69
2023-04-16T04:38:38.380Z,90.70
2023-04-16T04:39:38.165Z,90.73
2023-04-16T04:40:38.550Z,90.70
2023-04-16T04:41:38.193Z,90.64
2023-04-16T04:42:38.114Z,90.62
2023-04-16T04:43:38.132Z,90.56
2023-04-16T04:44:38.221Z,90.55
2023-04-16T04:45:38.873Z,90.60
2023-04-16T04:46:38.856Z,90.72
2023-04-16T04:47:38.737Z,90.77
2023-04-16T04:48:38.572Z,90.74
2023-04-16T04:49:38.399Z,90.69
2023-04-16T04:50:38.166Z,90.62
2023-04-16T04:51:37.860Z,90.63
2023-04-16T04:52:37.994Z,90.65
2023-04-16T04:53:37.683Z,90.55
2023-04-16T04:54:38.530Z,90.58
2023-04-16T04:55:38.093Z,90.58
2023-04-16T04:56:38.040Z,90.62
2023-04-16T04:57:38.033Z,90.65
2023-04-16T04:58:38.154Z,90.61
2023-04-16T04:59:38.252Z,90.54
2023-04-16T05:00:53.142Z,90.60
2023-04-16T05:01:38.307Z,90.56
2023-04-16T05:02:38.337Z,90.53
2023-04-16T05:03:39.079Z,90.58
2023-04-16T05:04:38.390Z,90.57
2023-04-16T05:05:38.459Z,90.62
2023-04-16T05:06:38.415Z,90.58
2023-04-16T05:07:38.184Z,90.63
2023-04-16T05:08:38.544Z,90.65
2023-04-16T05:09:38.255Z,90.66
2023-04-16T05:10:37.944Z,90.57
2023-04-16T05:11:38.084Z,90.54
2023-04-16T05:12:37.889Z,90.59
2023-04-16T05:13:38.610Z,90.59
2023-04-16T05:14:38.395Z,90.60
2023-04-16T05:15:38.419Z,90.52
2023-04-16T05:16:38.493Z,90.48
2023-04-16T05:17:38.485Z,90.56
2023-04-16T05:18:38.429Z,90.67
2023-04-16T05:19:38.058Z,90.63
2023-04-16T05:20:38.046Z,90.62
2023-04-16T05:21:38.058Z,90.57
2023-04-16T05:22:38.260Z,90.61
2023-04-16T05:23:38.121Z,90.76
2023-04-16T05:24:38.187Z,90.82
2023-04-16T05:25:38.059Z,90.80
2023-04-16T05:26:38.157Z,90.79
2023-04-16T05:27:37.848Z,90.86
2023-04-16T05:28:38.587Z,90.91
2023-04-16T05:29:38.530Z,90.90
2023-04-16T05:30:38.763Z,90.88
2023-04-16T05:31:39.444Z,90.91
2023-04-16T05:32:38.451Z,90.94
2023-04-16T05:33:38.485Z,90.87
2023-04-16T05:34:38.537Z,90.92
2023-04-16T05:35:38.387Z,90.98
2023-04-16T05:36:38.810Z,90.98
2023-04-16T05:37:38.538Z,90.98
2023-04-16T05:38:38.543Z,90.91
2023-04-16T05:39:38.610Z,90.84
2023-04-16T05:40:38.585Z,90.84
2023-04-16T05:41:38.424Z,90.90
2023-04-16T05:42:38.202Z,90.88
2023-04-16T05:43:38.401Z,90.90
2023-04-16T05:44:38.524Z,90.82
2023-04-16T05:45:40.979Z,90.84
2023-04-16T05:46:38.448Z,90.84
2023-04-16T05:47:38.620Z,90.92
2023-04-16T05:48:38.754Z,90.98
2023-04-16T05:49:38.539Z,90.98
2023-04-16T05:50:38.882Z,90.99
2023-04-16T05:51:38.612Z,91.05
2023-04-16T05:52:38.274Z,91.06
2023-04-16T05:53:38.535Z,91.01
2023-04-16T05:54:38.891Z,91.05
2023-04-16T05:55:38.729Z,91.01
2023-04-16T05:56:38.589Z,90.98
2023-04-16T05:57:38.858Z,90.94
2023-04-16T05:58:38.988Z,90.97
2023-04-16T05:59:38.851Z,90.97
2023-04-16T06:00:39.770Z,90.98
2023-04-16T06:01:38.728Z,90.99
2023-04-16T06:02:38.925Z,91.01
2023-04-16T06:03:38.723Z,91.05
2023-04-16T06:04:38.881Z,91.13
2023-04-16T06:05:39.164Z,91.15
2023-04-16T06:06:38.280Z,91.11
2023-04-16T06:07:38.385Z,91.02
2023-04-16T06:08:38.806Z,91.02
2023-04-16T06:09:38.910Z,91.01
2023-04-16T06:10:39.030Z,91.11
2023-04-16T06:11:37.993Z,91.19
2023-04-16T06:12:38.019Z,91.21
2023-04-16T06:13:38.169Z,91.18
2023-04-16T06:14:38.361Z,91.18
2023-04-16T06:15:38.380Z,91.16
2023-04-16T06:16:38.551Z,91.18
2023-04-16T06:17:43.835Z,91.26
2023-04-16T06:18:39.548Z,91.27
2023-04-16T06:19:38.301Z,91.34
2023-04-16T06:20:38.768Z,91.30
2023-04-16T06:21:43.653Z,91.08
2023-04-16T06:22:38.858Z,91.12
2023-04-16T06:23:38.438Z,91.14
2023-04-16T06:24:38.545Z,91.15
2023-04-16T06:25:38.526Z,91.24
2023-04-16T06:26:38.749Z,91.22
2023-04-16T06:27:39.351Z,91.23
2023-04-16T06:28:38.677Z,91.28
2023-04-16T06:29:52.084Z,91.35
2023-04-16T06:30:38.987Z,91.38
2023-04-16T06:31:38.627Z,91.41
2023-04-16T06:32:38.658Z,91.37
2023-04-16T06:33:38.560Z,91.42
2023-04-16T06:34:38.324Z,91.34
2023-04-16T06:35:38.731Z,91.37
2023-04-16T06:36:38.781Z,91.48
2023-04-16T06:37:38.828Z,91.50
2023-04-16T06:38:38.853Z,91.43
2023-04-16T06:39:38.852Z,91.27
2023-04-16T06:40:38.831Z,91.24
2023-04-16T06:41:39.024Z,91.29
2023-04-16T06:42:38.831Z,91.33
2023-04-16T06:43:39.154Z,91.37
2023-04-16T06:44:38.548Z,91.40
2023-04-16T06:45:39.300Z,91.45
2023-04-16T06:46:38.817Z,91.48
2023-04-16T06:47:39.276Z,91.58
2023-04-16T06:48:38.714Z,91.54
2023-04-16T06:49:38.840Z,91.53
2023-04-16T06:50:38.980Z,91.55
2023-04-16T06:51:57.454Z,91.54
2023-04-16T06:52:38.431Z,91.46
2023-04-16T06:53:38.936Z,91.43
2023-04-16T06:54:39.237Z,91.48
2023-04-16T06:55:43.467Z,91.53
2023-04-16T06:56:38.538Z,91.60
2023-04-16T06:57:38.665Z,91.61
2023-04-16T06:58:38.436Z,91.65
2023-04-16T06:59:38.232Z,91.59
2023-04-16T07:00:39.769Z,91.54
2023-04-16T07:01:38.858Z,91.58
2023-04-16T07:02:38.911Z,91.61
2023-04-16T07:03:38.277Z,91.59
2023-04-16T07:04:38.402Z,91.56
2023-04-16T07:05:38.869Z,91.59
2023-04-16T07:06:38.353Z,91.70
2023-04-16T07:07:37.997Z,91.79
2023-04-16T07:08:37.905Z,91.77
2023-04-16T07:10:00.660Z,91.80
2023-04-16T07:10:38.586Z,91.85
2023-04-16T07:11:39.192Z,91.76
2023-04-16T07:12:38.704Z,91.75
2023-04-16T07:13:38.603Z,91.79
2023-04-16T07:14:38.330Z,91.74
2023-04-16T07:15:38.623Z,91.72
2023-04-16T07:16:38.642Z,91.72
2023-04-16T07:17:38.867Z,91.70
2023-04-16T07:18:38.709Z,91.67
2023-04-16T07:20:09.758Z,91.66
2023-04-16T07:20:42.244Z,91.69
2023-04-16T07:21:38.329Z,91.61
2023-04-16T07:22:39.047Z,91.59
2023-04-16T07:23:38.001Z,91.67
2023-04-16T07:24:37.937Z,91.72
2023-04-16T07:25:38.665Z,91.69
2023-04-16T07:26:38.453Z,91.69
2023-04-16T07:27:38.679Z,91.72
2023-04-16T07:28:38.589Z,91.81
2023-04-16T07:29:38.084Z,91.76
2023-04-16T07:30:38.584Z,91.70
2023-04-16T07:31:57.524Z,91.75
2023-04-16T07:32:38.653Z,91.71
2023-04-16T07:33:38.741Z,91.80
2023-04-16T07:34:38.705Z,91.74
2023-04-16T07:35:38.745Z,91.67
2023-04-16T07:36:38.291Z,91.69
2023-04-16T07:37:37.930Z,91.77
2023-04-16T07:38:38.998Z,91.68
2023-04-16T07:39:38.166Z,91.66
2023-04-16T07:40:38.389Z,91.61
2023-04-16T07:41:38.602Z,91.60
2023-04-16T07:42:38.736Z,91.64
2023-04-16T07:44:00.683Z,91.60
2023-04-16T07:44:37.927Z,91.62
2023-04-16T07:45:40.472Z,91.58
2023-04-16T07:46:46.907Z,91.53
2023-04-16T07:47:38.463Z,91.57
2023-04-16T07:48:38.774Z,91.54
2023-04-16T07:49:38.454Z,91.53
2023-04-16T07:50:38.964Z,91.61
2023-04-16T07:51:38.769Z,91.59
2023-04-16T07:52:38.653Z,91.59
2023-04-16T07:53:38.551Z,91.62
2023-04-16T07:54:38.564Z,91.65
2023-04-16T07:55:39.254Z,91.65
2023-04-16T07:56:38.455Z,91.68
2023-04-16T07:57:38.597Z,91.68
2023-04-16T07:58:38.473Z,91.61
2023-04-16T07:59:39.368Z,91.65
2023-04-16T08:00:39.481Z,91.66
2023-04-16T08:02:09.488Z,91.65
2023-04-16T08:02:41.274Z,91.73
2023-04-16T08:03:39.770Z,91.75
2023-04-16T08:04:39.900Z,91.75
2023-04-16T08:05:38.967Z,91.74
2023-04-16T08:06:38.159Z,91.79
2023-04-16T08:07:37.823Z,91.77
2023-04-16T08:08:38.930Z,91.77
2023-04-16T08:09:38.778Z,91.76
2023-04-16T08:10:38.761Z,91.80
2023-04-16T08:11:38.761Z,91.76
2023-04-16T08:12:38.700Z,91.78
2023-04-16T08:13:38.668Z,91.85
2023-04-16T08:14:38.697Z,91.96
2023-04-16T08:15:38.708Z,91.99
2023-04-16T08:16:38.779Z,91.96
2023-04-16T08:17:38.855Z,91.95
2023-04-16T08:18:38.744Z,91.94
2023-04-16T08:19:38.895Z,91.94
2023-04-16T08:20:38.564Z,91.88
2023-04-16T08:21:38.408Z,91.88
2023-04-16T08:22:38.421Z,91.89
2023-04-16T08:23:38.609Z,91.89
2023-04-16T08:24:38.774Z,91.92
2023-04-16T08:25:38.756Z,91.95
2023-04-16T08:26:38.837Z,91.96
2023-04-16T08:27:38.647Z,91.96
2023-04-16T08:28:38.840Z,91.93
2023-04-16T08:29:38.400Z,91.90
2023-04-16T08:30:38.742Z,91.86
2023-04-16T08:31:38.583Z,91.83
2023-04-16T08:32:38.646Z,91.80
2023-04-16T08:33:38.282Z,91.80
2023-04-16T08:34:38.284Z,91.80
2023-04-16T08:35:38.674Z,91.72
2023-04-16T08:36:38.265Z,91.62
2023-04-16T08:37:38.461Z,91.59
2023-04-16T08:38:38.675Z,91.53
2023-04-16T08:39:38.911Z,91.29
2023-04-16T08:40:39.052Z,91.20
2023-04-16T08:42:38.479Z,91.36
2023-04-16T08:43:38.727Z,91.46
2023-04-16T08:44:38.869Z,91.51
2023-04-16T08:45:38.946Z,91.45
2023-04-16T08:46:44.504Z,91.40
2023-04-16T08:47:38.679Z,91.50
2023-04-16T08:48:38.767Z,91.46
2023-04-16T08:49:38.701Z,91.34
2023-04-16T08:50:38.904Z,91.37
2023-04-16T08:51:39.019Z,91.40
2023-04-16T08:52:38.320Z,91.55
2023-04-16T08:53:38.682Z,91.62
2023-04-16T08:54:38.791Z,91.68
2023-04-16T08:55:38.940Z,91.68
2023-04-16T08:56:47.195Z,91.65
2023-04-16T08:57:38.732Z,91.59
2023-04-16T08:58:38.630Z,91.50
2023-04-16T08:59:39.006Z,91.48
2023-04-16T09:00:39.513Z,91.40
2023-04-16T09:01:38.769Z,91.45
2023-04-16T09:02:39.238Z,91.40
2023-04-16T09:03:38.878Z,91.42
2023-04-16T09:04:39.022Z,91.47
2023-04-16T09:05:38.634Z,91.41
2023-04-16T09:06:38.509Z,91.32
2023-04-16T09:07:38.580Z,91.32
2023-04-16T09:08:38.628Z,91.33
2023-04-16T09:09:38.678Z,91.41
2023-04-16T09:10:38.614Z,91.45
2023-04-16T09:11:38.453Z,91.52
2023-04-16T09:12:38.731Z,91.51
2023-04-16T09:13:38.701Z,91.66
2023-04-16T09:14:52.511Z,91.62
2023-04-16T09:15:38.483Z,91.56
2023-04-16T09:16:38.438Z,91.54
2023-04-16T09:17:38.619Z,91.63
2023-04-16T09:18:38.861Z,91.72
2023-04-16T09:19:38.836Z,91.69
2023-04-16T09:20:39.258Z,91.48
2023-04-16T09:21:38.713Z,91.42
2023-04-16T09:22:38.505Z,91.36
2023-04-16T09:23:38.583Z,91.31
2023-04-16T09:24:38.938Z,91.33
2023-04-16T09:25:38.696Z,91.41
2023-04-16T09:26:38.845Z,91.48
2023-04-16T09:27:41.041Z,91.46
2023-04-16T09:28:38.181Z,91.52
2023-04-16T09:29:38.499Z,91.29
2023-04-16T09:30:38.757Z,91.26
2023-04-16T09:31:38.781Z,91.37
2023-04-16T09:32:38.834Z,91.49
2023-04-16T09:33:38.599Z,91.49
2023-04-16T09:34:38.631Z,91.48
2023-04-16T09:35:38.721Z,91.42
2023-04-16T09:36:38.955Z,91.38
2023-04-16T09:37:38.652Z,91.41
2023-04-16T09:38:38.758Z,91.44
2023-04-16T09:39:38.804Z,91.50
2023-04-16T09:40:38.472Z,91.60
2023-04-16T09:41:38.800Z,91.47
2023-04-16T09:42:38.946Z,91.55
2023-04-16T09:43:38.719Z,91.63
2023-04-16T09:44:38.623Z,91.61
2023-04-16T09:45:39.264Z,91.62
2023-04-16T09:46:38.821Z,91.59
2023-04-16T09:47:38.865Z,91.50
2023-04-16T09:48:38.739Z,91.54
2023-04-16T09:49:38.699Z,91.57
2023-04-16T09:50:39.030Z,91.66
2023-04-16T09:51:38.647Z,91.60
2023-04-16T09:52:38.827Z,91.55
2023-04-16T09:53:38.863Z,91.58
2023-04-16T09:54:38.873Z,91.48
2023-04-16T09:55:39.278Z,91.51
2023-04-16T09:56:38.029Z,91.52
2023-04-16T09:57:38.209Z,91.34
2023-04-16T09:58:38.446Z,91.52
2023-04-16T09:59:38.637Z,91.67
2023-04-16T10:01:10.741Z,91.72
2023-04-16T10:01:42.781Z,91.66
2023-04-16T10:02:39.330Z,91.70
2023-04-16T10:03:39.313Z,91.70
2023-04-16T10:04:39.269Z,91.78
2023-04-16T10:05:39.257Z,91.79
2023-04-16T10:06:38.904Z,91.81
2023-04-16T10:07:38.374Z,91.86
2023-04-16T10:08:38.744Z,91.73
2023-04-16T10:09:39.061Z,91.66
2023-04-16T10:10:38.795Z,91.70
2023-04-16T10:11:38.900Z,91.81
2023-04-16T10:12:38.701Z,91.73
2023-04-16T10:13:38.789Z,91.72
2023-04-16T10:14:38.857Z,91.62
2023-04-16T10:15:39.542Z,91.57
2023-04-16T10:16:39.055Z,91.59
2023-04-16T10:17:38.538Z,91.54
2023-04-16T10:18:38.790Z,91.47
2023-04-16T10:19:39.224Z,91.40
2023-04-16T10:20:38.609Z,91.41
2023-04-16T10:21:39.051Z,91.43
2023-04-16T10:22:38.146Z,91.44
2023-04-16T10:23:38.181Z,91.44
2023-04-16T10:24:38.650Z,91.51
2023-04-16T10:25:39.258Z,91.54
2023-04-16T10:26:38.694Z,91.49
2023-04-16T10:27:38.813Z,91.32
2023-04-16T10:28:38.891Z,91.28
2023-04-16T10:29:39.069Z,91.28
2023-04-16T10:30:38.351Z,91.31
2023-04-16T10:31:38.627Z,91.49
2023-04-16T10:32:38.943Z,91.54
2023-04-16T10:33:38.672Z,91.54
2023-04-16T10:34:39.029Z,91.56
2023-04-16T10:35:38.292Z,91.49
2023-04-16T10:36:38.761Z,91.55
2023-04-16T10:37:38.847Z,91.55
2023-04-16T10:38:39.100Z,91.44
2023-04-16T10:39:38.499Z,91.43
2023-04-16T10:40:38.901Z,91.36
2023-04-16T10:41:38.901Z,91.29
2023-04-16T10:42:39.121Z,91.29
2023-04-16T10:43:38.566Z,91.31
2023-04-16T10:44:38.365Z,91.33
2023-04-16T10:45:38.690Z,91.36
2023-04-16T10:46:38.796Z,91.28
2023-04-16T10:47:39.056Z,91.33
2023-04-16T10:48:46.745Z,91.33
2023-04-16T10:49:38.566Z,91.41
2023-04-16T10:50:39.062Z,91.46
2023-04-16T10:51:37.981Z,91.46
2023-04-16T10:52:38.368Z,91.42
2023-04-16T10:53:38.399Z,91.38
2023-04-16T10:54:38.389Z,91.43
2023-04-16T10:55:38.685Z,91.45
2023-04-16T10:56:38.839Z,91.60
2023-04-16T10:57:38.863Z,91.66
2023-04-16T10:59:15.075Z,91.67
2023-04-16T10:59:41.636Z,91.65
2023-04-16T11:00:40.180Z,91.58
2023-04-16T11:01:38.446Z,91.48
2023-04-16T11:02:42.080Z,91.44
2023-04-16T11:03:38.846Z,91.41
2023-04-16T11:04:39.695Z,91.39
2023-04-16T11:05:38.710Z,91.27
2023-04-16T11:06:38.545Z,91.25
2023-04-16T11:07:38.283Z,91.17
2023-04-16T11:08:53.201Z,91.05
2023-04-16T11:09:44.195Z,90.92
2023-04-16T11:10:38.398Z,90.95
2023-04-16T11:11:38.667Z,91.00
2023-04-16T11:12:38.993Z,90.98
2023-04-16T11:13:38.667Z,90.95
2023-04-16T11:14:38.759Z,90.83
2023-04-16T11:15:44.029Z,90.79
2023-04-16T11:16:38.285Z,90.85
2023-04-16T11:17:38.591Z,90.82
2023-04-16T11:18:41.631Z,90.61
2023-04-16T11:19:38.810Z,90.56
2023-04-16T11:20:39.168Z,90.54
2023-04-16T11:21:38.666Z,90.57
2023-04-16T11:22:38.464Z,90.64
2023-04-16T11:23:46.501Z,90.78
2023-04-16T11:24:41.035Z,90.80
2023-04-16T11:25:38.724Z,90.69
2023-04-16T11:26:39.298Z,90.61
2023-04-16T11:27:38.598Z,90.45
2023-04-16T11:28:39.167Z,90.45
2023-04-16T11:29:38.739Z,90.51
2023-04-16T11:30:39.213Z,90.62
2023-04-16T11:31:38.678Z,90.61
2023-04-16T11:32:38.422Z,90.65
2023-04-16T11:33:38.541Z,90.61
2023-04-16T11:34:38.761Z,90.66
2023-04-16T11:35:38.611Z,90.73
2023-04-16T11:36:42.427Z,90.74
2023-04-16T11:37:52.588Z,90.52
2023-04-16T11:38:38.395Z,90.38
2023-04-16T11:39:38.184Z,90.38
2023-04-16T11:40:38.726Z,90.38
2023-04-16T11:41:38.612Z,90.35
2023-04-16T11:42:38.564Z,90.31
2023-04-16T11:43:43.612Z,90.07
2023-04-16T11:44:38.960Z,90.15
2023-04-16T11:45:39.386Z,89.94
2023-04-16T11:46:42.729Z,90.03
2023-04-16T11:47:38.823Z,89.87
2023-04-16T11:48:39.088Z,89.84
2023-04-16T11:49:38.185Z,90.27
2023-04-16T11:50:38.745Z,90.02
2023-04-16T11:51:38.912Z,89.69
2023-04-16T11:52:39.328Z,89.59
2023-04-16T11:53:38.411Z,89.54
2023-04-16T11:54:38.634Z,89.40
2023-04-16T11:55:38.676Z,89.21
2023-04-16T11:56:39.004Z,88.85
2023-04-16T11:57:38.331Z,88.81
2023-04-16T11:58:38.315Z,88.77
2023-04-16T11:59:38.540Z,88.74
2023-04-16T12:00:40.353Z,88.89
2023-04-16T12:01:38.230Z,88.88
2023-04-16T12:02:38.931Z,89
2023-04-16T12:03:38.923Z,89.18
2023-04-16T12:04:38.384Z,89.28
2023-04-16T12:05:38.457Z,89.11
2023-04-16T12:06:39.466Z,89.23
2023-04-16T12:07:38.283Z,89.26
2023-04-16T12:08:38.542Z,88.92
2023-04-16T12:09:40.216Z,88.73
2023-04-16T12:10:39.207Z,88.97
2023-04-16T12:11:38.399Z,88.92
2023-04-16T12:12:38.337Z,88.85
2023-04-16T12:13:38.425Z,89.08
2023-04-16T12:14:38.239Z,88.94
2023-04-16T12:15:38.577Z,88.83
2023-04-16T12:16:38.808Z,88.77
2023-04-16T12:17:39.144Z,88.75
2023-04-16T12:18:37.983Z,88.87
2023-04-16T12:19:57.643Z,89.13
2023-04-16T12:20:39.185Z,89.21
2023-04-16T12:21:38.273Z,89.23
2023-04-16T12:22:37.725Z,89.53
2023-04-16T12:23:38.658Z,89.47
2023-04-16T12:24:38.781Z,89.44
2023-04-16T12:25:39.012Z,89.37
2023-04-16T12:26:38.132Z,89.16
2023-04-16T12:27:38.297Z,89.13
2023-04-16T12:28:38.903Z,88.69
2023-04-16T12:29:39.131Z,88.48
2023-04-16T12:30:38.056Z,88.38
2023-04-16T12:31:38.385Z,88.57
2023-04-16T12:32:38.982Z,88.49
2023-04-16T12:33:38.142Z,88.41
2023-04-16T12:35:06.997Z,88.50
2023-04-16T12:35:40.819Z,88.39
2023-04-16T12:36:38.908Z,88.27
2023-04-16T12:37:38.617Z,88.15
2023-04-16T12:38:39.453Z,88.06
2023-04-16T12:39:38.600Z,88.11
2023-04-16T12:40:39.344Z,87.90
2023-04-16T12:41:38.084Z,87.75
2023-04-16T12:42:38.359Z,87.81
2023-04-16T12:43:38.177Z,87.84
2023-04-16T12:44:38.300Z,87.77
2023-04-16T12:45:38.862Z,87.65
2023-04-16T12:46:39.560Z,87.59
2023-04-16T12:47:39.108Z,87.56
2023-04-16T12:48:38.141Z,87.50
2023-04-16T12:50:39.805Z,87.09
2023-04-16T12:52:08.674Z,87.10
2023-04-16T12:52:38.741Z,87.02
2023-04-16T12:53:38.477Z,87.03
2023-04-16T12:54:38.477Z,86.93
2023-04-16T12:55:38.627Z,86.78